Tappan, New York
Current Conditions -  °F | °C
As of 7:56 PM on Friday 31 Oct 2014 (Local Time) from KHPN Reporting Station
Broken Clouds Broken Clouds  
Wind Chill: 50°   Ceiling: 8000
Heat Index: 50°   Visibility: 10mi
Dew Point: 38°   Wind: 5mph
Humidity: 63%   Direction: 40°NE
Pressure: 29.91"   Gusts: NA
Location:  41.02°N, 73.95°W
Report Text: KHPN 312356Z 04004KT 10SM BKN080 10/03 A2991 RMK AO2 SLP130 T01000033 10117 20100 51004
Loading
Personal Weather Stations






























Interactive Weather Map New forecast layout! Learn more

10-Day Weather Forecast

Advertisements
Track Severe Weather on mobile